sensor_id;sensor_type;location;lat;lon;timestamp;temperature;humidity
11087;DHT22;5597;47.588;9.642;2022-12-05T00:01:32;3.00;99.90
11087;DHT22;5597;47.588;9.642;2022-12-05T00:04:02;3.00;99.90
11087;DHT22;5597;47.588;9.642;2022-12-05T00:06:29;3.00;99.90
11087;DHT22;5597;47.588;9.642;2022-12-05T00:08:56;2.90;99.90
11087;DHT22;5597;47.588;9.642;2022-12-05T00:11:30;2.90;99.90
11087;DHT22;5597;47.588;9.642;2022-12-05T00:13:58;3.00;99.90
11087;DHT22;5597;47.588;9.642;2022-12-05T00:16:30;3.00;99.90
11087;DHT22;5597;47.588;9.642;2022-12-05T00:18:58;3.00;99.90
11087;DHT22;5597;47.588;9.642;2022-12-05T00:21:26;3.00;99.90
11087;DHT22;5597;47.588;9.642;2022-12-05T00:23:53;3.00;99.90
11087;DHT22;5597;47.588;9.642;2022-12-05T00:26:19;3.00;99.90
11087;DHT22;5597;47.588;9.642;2022-12-05T00:28:45;3.00;99.90
11087;DHT22;5597;47.588;9.642;2022-12-05T00:31:14;3.00;99.90
11087;DHT22;5597;47.588;9.642;2022-12-05T00:33:41;3.00;99.90
11087;DHT22;5597;47.588;9.642;2022-12-05T00:36:12;3.00;99.90
11087;DHT22;5597;47.588;9.642;2022-12-05T00:38:38;3.00;99.90
11087;DHT22;5597;47.588;9.642;2022-12-05T00:41:13;3.00;99.90
11087;DHT22;5597;47.588;9.642;2022-12-05T00:43:39;3.00;99.90
11087;DHT22;5597;47.588;9.642;2022-12-05T00:46:07;3.00;99.90
11087;DHT22;5597;47.588;9.642;2022-12-05T00:48:33;3.00;99.90
11087;DHT22;5597;47.588;9.642;2022-12-05T00:51:10;3.00;99.90
11087;DHT22;5597;47.588;9.642;2022-12-05T00:53:37;3.00;99.90
11087;DHT22;5597;47.588;9.642;2022-12-05T00:56:11;3.10;99.90
11087;DHT22;5597;47.588;9.642;2022-12-05T00:58:38;3.10;99.90
11087;DHT22;5597;47.588;9.642;2022-12-05T01:01:13;3.10;99.90
11087;DHT22;5597;47.588;9.642;2022-12-05T01:03:39;3.10;99.90
11087;DHT22;5597;47.588;9.642;2022-12-05T01:06:05;3.10;99.90
11087;DHT22;5597;47.588;9.642;2022-12-05T01:08:32;3.10;99.90
11087;DHT22;5597;47.588;9.642;2022-12-05T01:10:58;3.10;99.90
11087;DHT22;5597;47.588;9.642;2022-12-05T01:13:25;3.20;99.90
11087;DHT22;5597;47.588;9.642;2022-12-05T01:15:51;3.20;99.90
11087;DHT22;5597;47.588;9.642;2022-12-05T01:18:17;3.20;99.90
11087;DHT22;5597;47.588;9.642;2022-12-05T01:20:43;3.20;99.90
11087;DHT22;5597;47.588;9.642;2022-12-05T01:23:09;3.20;99.90
11087;DHT22;5597;47.588;9.642;2022-12-05T01:25:41;3.10;99.90
11087;DHT22;5597;47.588;9.642;2022-12-05T01:28:07;3.10;99.90
11087;DHT22;5597;47.588;9.642;2022-12-05T01:30:37;3.10;99.90
11087;DHT22;5597;47.588;9.642;2022-12-05T01:33:03;3.20;99.90
11087;DHT22;5597;47.588;9.642;2022-12-05T01:35:31;3.10;99.90
11087;DHT22;5597;47.588;9.642;2022-12-05T01:37:56;3.10;99.90
11087;DHT22;5597;47.588;9.642;2022-12-05T01:40:22;3.10;99.90
11087;DHT22;5597;47.588;9.642;2022-12-05T01:42:48;3.10;99.90
11087;DHT22;5597;47.588;9.642;2022-12-05T01:45:35;3.10;99.90
11087;DHT22;5597;47.588;9.642;2022-12-05T01:48:04;3.10;99.90
11087;DHT22;5597;47.588;9.642;2022-12-05T01:50:31;3.10;99.90
11087;DHT22;5597;47.588;9.642;2022-12-05T01:52:57;3.10;99.90
11087;DHT22;5597;47.588;9.642;2022-12-05T01:55:23;3.10;99.90
11087;DHT22;5597;47.588;9.642;2022-12-05T01:57:49;3.10;99.90
11087;DHT22;5597;47.588;9.642;2022-12-05T02:00:17;3.10;99.90
11087;DHT22;5597;47.588;9.642;2022-12-05T02:02:51;3.10;99.90
11087;DHT22;5597;47.588;9.642;2022-12-05T02:05:20;3.10;99.90
11087;DHT22;5597;47.588;9.642;2022-12-05T02:07:47;3.20;99.90
11087;DHT22;5597;47.588;9.642;2022-12-05T02:10:13;3.20;99.90
11087;DHT22;5597;47.588;9.642;2022-12-05T02:12:39;3.20;99.90
11087;DHT22;5597;47.588;9.642;2022-12-05T02:15:34;3.20;99.90
11087;DHT22;5597;47.588;9.642;2022-12-05T02:27:11;3.20;99.90
11087;DHT22;5597;47.588;9.642;2022-12-05T02:29:41;3.20;99.90
11087;DHT22;5597;47.588;9.642;2022-12-05T02:32:17;3.20;99.90
11087;DHT22;5597;47.588;9.642;2022-12-05T02:37:39;3.20;99.90
11087;DHT22;5597;47.588;9.642;2022-12-05T02:40:39;3.20;99.90
11087;DHT22;5597;47.588;9.642;2022-12-05T02:43:16;3.20;99.90
11087;DHT22;5597;47.588;9.642;2022-12-05T02:45:44;3.20;99.90
11087;DHT22;5597;47.588;9.642;2022-12-05T02:48:13;3.20;99.90
11087;DHT22;5597;47.588;9.642;2022-12-05T02:50:41;3.20;99.90
11087;DHT22;5597;47.588;9.642;2022-12-05T02:53:10;3.20;99.90
11087;DHT22;5597;47.588;9.642;2022-12-05T02:55:38;3.20;99.90
11087;DHT22;5597;47.588;9.642;2022-12-05T02:58:10;3.20;99.90
11087;DHT22;5597;47.588;9.642;2022-12-05T03:00:39;3.20;99.90
11087;DHT22;5597;47.588;9.642;2022-12-05T03:03:16;3.20;99.90
11087;DHT22;5597;47.588;9.642;2022-12-05T03:08:21;3.20;99.90
11087;DHT22;5597;47.588;9.642;2022-12-05T03:10:49;3.20;99.90
11087;DHT22;5597;47.588;9.642;2022-12-05T03:13:23;3.20;99.90
11087;DHT22;5597;47.588;9.642;2022-12-05T03:15:54;3.20;99.90
11087;DHT22;5597;47.588;9.642;2022-12-05T03:18:28;3.20;99.90
11087;DHT22;5597;47.588;9.642;2022-12-05T03:21:01;3.20;99.90
11087;DHT22;5597;47.588;9.642;2022-12-05T03:23:32;3.20;99.90
11087;DHT22;5597;47.588;9.642;2022-12-05T03:26:31;3.20;99.90
11087;DHT22;5597;47.588;9.642;2022-12-05T03:29:24;3.20;99.90
11087;DHT22;5597;47.588;9.642;2022-12-05T03:34:38;3.20;99.90
11087;DHT22;5597;47.588;9.642;2022-12-05T03:37:12;3.10;99.90
11087;DHT22;5597;47.588;9.642;2022-12-05T03:39:43;3.10;99.90
11087;DHT22;5597;47.588;9.642;2022-12-05T03:42:14;3.10;99.90
11087;DHT22;5597;47.588;9.642;2022-12-05T03:47:34;3.10;99.90
11087;DHT22;5597;47.588;9.642;2022-12-05T03:50:09;3.10;99.90
11087;DHT22;5597;47.588;9.642;2022-12-05T03:52:42;3.10;99.90
11087;DHT22;5597;47.588;9.642;2022-12-05T03:55:12;3.10;99.90
11087;DHT22;5597;47.588;9.642;2022-12-05T03:57:43;3.10;99.90
11087;DHT22;5597;47.588;9.642;2022-12-05T04:00:14;3.10;99.90
11087;DHT22;5597;47.588;9.642;2022-12-05T04:02:48;3.10;99.90
11087;DHT22;5597;47.588;9.642;2022-12-05T04:08:09;3.20;99.90
11087;DHT22;5597;47.588;9.642;2022-12-05T04:10:36;3.10;99.90
11087;DHT22;5597;47.588;9.642;2022-12-05T04:13:16;3.10;99.90
11087;DHT22;5597;47.588;9.642;2022-12-05T04:15:48;3.20;99.90
11087;DHT22;5597;47.588;9.642;2022-12-05T04:18:36;3.10;99.90
11087;DHT22;5597;47.588;9.642;2022-12-05T04:21:04;3.20;99.90
11087;DHT22;5597;47.588;9.642;2022-12-05T04:23:49;3.10;99.90
11087;DHT22;5597;47.588;9.642;2022-12-05T04:26:39;3.10;99.90
11087;DHT22;5597;47.588;9.642;2022-12-05T04:29:18;3.10;99.90
11087;DHT22;5597;47.588;9.642;2022-12-05T04:31:50;3.20;99.90
11087;DHT22;5597;47.588;9.642;2022-12-05T04:34:18;3.10;99.90
11087;DHT22;5597;47.588;9.642;2022-12-05T04:36:51;3.20;99.90
11087;DHT22;5597;47.588;9.642;2022-12-05T04:39:39;3.20;99.90
11087;DHT22;5597;47.588;9.642;2022-12-05T04:42:13;3.20;99.90
11087;DHT22;5597;47.588;9.642;2022-12-05T04:45:09;3.20;99.90
11087;DHT22;5597;47.588;9.642;2022-12-05T04:47:42;3.30;99.90
11087;DHT22;5597;47.588;9.642;2022-12-05T04:50:10;3.30;99.90
11087;DHT22;5597;47.588;9.642;2022-12-05T04:52:39;3.30;99.90
11087;DHT22;5597;47.588;9.642;2022-12-05T04:55:11;3.30;99.90
11087;DHT22;5597;47.588;9.642;2022-12-05T04:58:07;3.30;99.90
11087;DHT22;5597;47.588;9.642;2022-12-05T05:03:26;3.40;99.90
11087;DHT22;5597;47.588;9.642;2022-12-05T05:05:54;3.40;99.90
11087;DHT22;5597;47.588;9.642;2022-12-05T05:08:25;3.40;99.90
11087;DHT22;5597;47.588;9.642;2022-12-05T05:11:06;3.40;99.90
11087;DHT22;5597;47.588;9.642;2022-12-05T05:13:34;3.40;99.90
11087;DHT22;5597;47.588;9.642;2022-12-05T05:16:00;3.40;99.90
11087;DHT22;5597;47.588;9.642;2022-12-05T05:18:26;3.40;99.90
11087;DHT22;5597;47.588;9.642;2022-12-05T05:20:51;3.40;99.90
11087;DHT22;5597;47.588;9.642;2022-12-05T05:23:17;3.40;99.90
11087;DHT22;5597;47.588;9.642;2022-12-05T05:25:42;3.50;99.90
11087;DHT22;5597;47.588;9.642;2022-12-05T05:28:08;3.50;99.90
11087;DHT22;5597;47.588;9.642;2022-12-05T05:30:33;3.60;99.90
11087;DHT22;5597;47.588;9.642;2022-12-05T05:32:59;3.60;99.90
11087;DHT22;5597;47.588;9.642;2022-12-05T05:35:25;3.60;99.90
11087;DHT22;5597;47.588;9.642;2022-12-05T05:37:50;3.60;99.90
11087;DHT22;5597;47.588;9.642;2022-12-05T05:40:16;3.70;99.90
11087;DHT22;5597;47.588;9.642;2022-12-05T05:42:44;3.70;99.90
11087;DHT22;5597;47.588;9.642;2022-12-05T05:45:10;3.70;99.90
11087;DHT22;5597;47.588;9.642;2022-12-05T05:47:36;3.70;99.90
11087;DHT22;5597;47.588;9.642;2022-12-05T05:50:03;3.70;99.90
11087;DHT22;5597;47.588;9.642;2022-12-05T05:52:31;3.70;99.90
11087;DHT22;5597;47.588;9.642;2022-12-05T05:54:57;3.70;99.90
11087;DHT22;5597;47.588;9.642;2022-12-05T05:57:22;3.70;99.90
11087;DHT22;5597;47.588;9.642;2022-12-05T05:59:48;3.80;99.90
11087;DHT22;5597;47.588;9.642;2022-12-05T06:02:13;3.70;99.90
11087;DHT22;5597;47.588;9.642;2022-12-05T06:04:39;3.80;99.90
11087;DHT22;5597;47.588;9.642;2022-12-05T06:07:04;3.70;99.90
11087;DHT22;5597;47.588;9.642;2022-12-05T06:09:30;3.80;99.90
11087;DHT22;5597;47.588;9.642;2022-12-05T06:11:56;3.80;99.90
11087;DHT22;5597;47.588;9.642;2022-12-05T06:14:21;3.80;99.90
11087;DHT22;5597;47.588;9.642;2022-12-05T06:16:47;3.70;99.90
11087;DHT22;5597;47.588;9.642;2022-12-05T06:19:12;3.80;99.90
11087;DHT22;5597;47.588;9.642;2022-12-05T06:21:38;3.80;99.90
11087;DHT22;5597;47.588;9.642;2022-12-05T06:24:04;3.80;99.90
11087;DHT22;5597;47.588;9.642;2022-12-05T06:26:29;3.80;99.90
11087;DHT22;5597;47.588;9.642;2022-12-05T06:28:56;3.80;99.90
11087;DHT22;5597;47.588;9.642;2022-12-05T06:31:23;3.80;99.90
11087;DHT22;5597;47.588;9.642;2022-12-05T06:33:51;3.80;99.90
11087;DHT22;5597;47.588;9.642;2022-12-05T06:36:20;3.80;99.90
11087;DHT22;5597;47.588;9.642;2022-12-05T06:38:46;3.80;99.90
11087;DHT22;5597;47.588;9.642;2022-12-05T06:41:14;3.80;99.90
11087;DHT22;5597;47.588;9.642;2022-12-05T06:43:41;3.80;99.90
11087;DHT22;5597;47.588;9.642;2022-12-05T06:46:09;3.80;99.90
11087;DHT22;5597;47.588;9.642;2022-12-05T06:48:36;3.80;99.90
11087;DHT22;5597;47.588;9.642;2022-12-05T06:51:01;3.80;99.90
11087;DHT22;5597;47.588;9.642;2022-12-05T06:53:27;3.80;99.90
11087;DHT22;5597;47.588;9.642;2022-12-05T06:56:04;3.80;99.90
11087;DHT22;5597;47.588;9.642;2022-12-05T06:58:32;3.90;99.90
11087;DHT22;5597;47.588;9.642;2022-12-05T07:00:58;3.90;99.90
11087;DHT22;5597;47.588;9.642;2022-12-05T07:03:42;3.90;99.90
11087;DHT22;5597;47.588;9.642;2022-12-05T07:06:13;3.90;99.90
11087;DHT22;5597;47.588;9.642;2022-12-05T07:08:39;3.90;99.90
11087;DHT22;5597;47.588;9.642;2022-12-05T07:11:06;4.00;99.90
11087;DHT22;5597;47.588;9.642;2022-12-05T07:13:32;4.00;99.90
11087;DHT22;5597;47.588;9.642;2022-12-05T07:15:57;4.00;99.90
11087;DHT22;5597;47.588;9.642;2022-12-05T07:18:24;4.10;99.90
11087;DHT22;5597;47.588;9.642;2022-12-05T07:20:58;4.10;99.90
11087;DHT22;5597;47.588;9.642;2022-12-05T07:23:24;4.10;99.90
11087;DHT22;5597;47.588;9.642;2022-12-05T07:25:49;4.20;99.90
11087;DHT22;5597;47.588;9.642;2022-12-05T07:28:15;4.20;99.90
11087;DHT22;5597;47.588;9.642;2022-12-05T07:30:41;4.20;99.90
11087;DHT22;5597;47.588;9.642;2022-12-05T07:33:06;4.20;99.90
11087;DHT22;5597;47.588;9.642;2022-12-05T07:35:32;4.20;99.90
11087;DHT22;5597;47.588;9.642;2022-12-05T07:37:57;4.30;99.90
11087;DHT22;5597;47.588;9.642;2022-12-05T07:40:23;4.40;99.90
11087;DHT22;5597;47.588;9.642;2022-12-05T07:42:49;4.40;99.90
11087;DHT22;5597;47.588;9.642;2022-12-05T07:45:15;4.50;99.90
11087;DHT22;5597;47.588;9.642;2022-12-05T07:47:41;4.50;99.90
11087;DHT22;5597;47.588;9.642;2022-12-05T07:50:06;4.50;99.90
11087;DHT22;5597;47.588;9.642;2022-12-05T07:52:32;4.50;99.90
11087;DHT22;5597;47.588;9.642;2022-12-05T07:54:58;4.50;99.90
11087;DHT22;5597;47.588;9.642;2022-12-05T07:57:23;4.50;99.90
11087;DHT22;5597;47.588;9.642;2022-12-05T07:59:49;4.50;99.90
11087;DHT22;5597;47.588;9.642;2022-12-05T08:02:15;4.50;99.90
11087;DHT22;5597;47.588;9.642;2022-12-05T08:04:40;4.50;99.90
11087;DHT22;5597;47.588;9.642;2022-12-05T08:07:09;4.50;99.90
11087;DHT22;5597;47.588;9.642;2022-12-05T08:09:35;4.50;99.90
11087;DHT22;5597;47.588;9.642;2022-12-05T08:12:00;4.50;99.90
11087;DHT22;5597;47.588;9.642;2022-12-05T08:14:26;4.50;99.90
11087;DHT22;5597;47.588;9.642;2022-12-05T08:16:52;4.50;99.90
11087;DHT22;5597;47.588;9.642;2022-12-05T08:19:17;4.50;99.90
11087;DHT22;5597;47.588;9.642;2022-12-05T08:21:43;4.40;99.90
11087;DHT22;5597;47.588;9.642;2022-12-05T08:24:10;4.40;99.90
11087;DHT22;5597;47.588;9.642;2022-12-05T08:26:36;4.40;99.90
11087;DHT22;5597;47.588;9.642;2022-12-05T08:29:08;4.40;99.90
11087;DHT22;5597;47.588;9.642;2022-12-05T08:31:38;4.40;99.90
11087;DHT22;5597;47.588;9.642;2022-12-05T08:34:04;4.40;99.90
11087;DHT22;5597;47.588;9.642;2022-12-05T08:36:30;4.40;99.90
11087;DHT22;5597;47.588;9.642;2022-12-05T08:39:02;4.40;99.90
11087;DHT22;5597;47.588;9.642;2022-12-05T08:41:28;4.40;99.90
11087;DHT22;5597;47.588;9.642;2022-12-05T08:44:04;4.40;99.90
11087;DHT22;5597;47.588;9.642;2022-12-05T08:46:32;4.40;99.90
11087;DHT22;5597;47.588;9.642;2022-12-05T08:48:58;4.40;99.90
11087;DHT22;5597;47.588;9.642;2022-12-05T08:51:23;4.40;99.90
11087;DHT22;5597;47.588;9.642;2022-12-05T08:53:49;4.40;99.90
11087;DHT22;5597;47.588;9.642;2022-12-05T08:56:15;4.50;99.90
11087;DHT22;5597;47.588;9.642;2022-12-05T08:58:41;4.50;99.90
11087;DHT22;5597;47.588;9.642;2022-12-05T09:01:11;4.50;99.90
11087;DHT22;5597;47.588;9.642;2022-12-05T09:03:38;4.60;99.90
11087;DHT22;5597;47.588;9.642;2022-12-05T09:06:11;4.60;99.90
11087;DHT22;5597;47.588;9.642;2022-12-05T09:08:37;4.70;99.90
11087;DHT22;5597;47.588;9.642;2022-12-05T09:11:14;4.70;99.90
11087;DHT22;5597;47.588;9.642;2022-12-05T09:13:41;4.70;99.90
11087;DHT22;5597;47.588;9.642;2022-12-05T09:16:11;4.70;99.90
11087;DHT22;5597;47.588;9.642;2022-12-05T09:18:37;4.70;99.90
11087;DHT22;5597;47.588;9.642;2022-12-05T09:21:10;4.70;99.90
11087;DHT22;5597;47.588;9.642;2022-12-05T09:23:36;4.70;99.90
11087;DHT22;5597;47.588;9.642;2022-12-05T09:26:03;4.80;99.90
11087;DHT22;5597;47.588;9.642;2022-12-05T09:28:29;4.70;99.90
11087;DHT22;5597;47.588;9.642;2022-12-05T09:31:01;4.70;99.90
11087;DHT22;5597;47.588;9.642;2022-12-05T09:33:29;4.70;99.90
11087;DHT22;5597;47.588;9.642;2022-12-05T09:35:54;4.70;99.90
11087;DHT22;5597;47.588;9.642;2022-12-05T09:38:21;4.70;99.90
11087;DHT22;5597;47.588;9.642;2022-12-05T09:40:53;4.70;99.90
11087;DHT22;5597;47.588;9.642;2022-12-05T09:43:31;4.70;99.90
11087;DHT22;5597;47.588;9.642;2022-12-05T09:46:15;4.70;99.90
11087;DHT22;5597;47.588;9.642;2022-12-05T09:48:42;4.70;99.90
11087;DHT22;5597;47.588;9.642;2022-12-05T09:51:10;4.60;99.90
11087;DHT22;5597;47.588;9.642;2022-12-05T09:53:40;4.60;99.90
11087;DHT22;5597;47.588;9.642;2022-12-05T09:56:26;4.60;99.90
11087;DHT22;5597;47.588;9.642;2022-12-05T09:58:54;4.60;99.90
11087;DHT22;5597;47.588;9.642;2022-12-05T10:01:36;4.60;99.90
11087;DHT22;5597;47.588;9.642;2022-12-05T10:04:26;4.50;99.90
11087;DHT22;5597;47.588;9.642;2022-12-05T10:12:38;4.50;99.90
11087;DHT22;5597;47.588;9.642;2022-12-05T10:15:43;4.50;99.90
11087;DHT22;5597;47.588;9.642;2022-12-05T10:18:37;4.50;99.90
11087;DHT22;5597;47.588;9.642;2022-12-05T10:21:15;4.50;99.90
11087;DHT22;5597;47.588;9.642;2022-12-05T10:23:55;4.50;99.90
11087;DHT22;5597;47.588;9.642;2022-12-05T10:26:25;4.50;99.90
11087;DHT22;5597;47.588;9.642;2022-12-05T10:31:33;4.60;99.90
11087;DHT22;5597;47.588;9.642;2022-12-05T10:34:05;4.60;99.90
11087;DHT22;5597;47.588;9.642;2022-12-05T10:36:34;4.60;99.90
11087;DHT22;5597;47.588;9.642;2022-12-05T10:39:00;4.70;99.90
11087;DHT22;5597;47.588;9.642;2022-12-05T10:41:26;4.70;99.90
11087;DHT22;5597;47.588;9.642;2022-12-05T10:43:53;4.70;99.90
11087;DHT22;5597;47.588;9.642;2022-12-05T10:46:20;4.70;99.90
11087;DHT22;5597;47.588;9.642;2022-12-05T10:48:46;4.80;99.90
11087;DHT22;5597;47.588;9.642;2022-12-05T10:51:15;4.80;99.90
11087;DHT22;5597;47.588;9.642;2022-12-05T10:53:44;4.80;99.90
11087;DHT22;5597;47.588;9.642;2022-12-05T10:56:36;4.80;99.90
11087;DHT22;5597;47.588;9.642;2022-12-05T10:59:03;4.80;99.90
11087;DHT22;5597;47.588;9.642;2022-12-05T11:01:29;4.70;99.90
11087;DHT22;5597;47.588;9.642;2022-12-05T11:03:59;4.70;99.90
11087;DHT22;5597;47.588;9.642;2022-12-05T11:06:28;4.70;99.90
11087;DHT22;5597;47.588;9.642;2022-12-05T11:11:37;4.70;99.90
11087;DHT22;5597;47.588;9.642;2022-12-05T11:14:26;4.70;99.90
11087;DHT22;5597;47.588;9.642;2022-12-05T11:16:53;4.70;99.90
11087;DHT22;5597;47.588;9.642;2022-12-05T11:21:51;4.70;99.90
11087;DHT22;5597;47.588;9.642;2022-12-05T11:24:27;4.70;99.90
11087;DHT22;5597;47.588;9.642;2022-12-05T11:26:54;4.80;99.90
11087;DHT22;5597;47.588;9.642;2022-12-05T11:29:35;4.80;99.90
11087;DHT22;5597;47.588;9.642;2022-12-05T11:32:03;4.90;99.90
11087;DHT22;5597;47.588;9.642;2022-12-05T11:34:49;4.90;99.90
11087;DHT22;5597;47.588;9.642;2022-12-05T11:37:49;4.90;99.90
11087;DHT22;5597;47.588;9.642;2022-12-05T11:48:26;5.00;99.90
11087;DHT22;5597;47.588;9.642;2022-12-05T11:51:13;5.00;99.90
11087;DHT22;5597;47.588;9.642;2022-12-05T11:53:58;5.10;99.90
11087;DHT22;5597;47.588;9.642;2022-12-05T11:56:35;5.10;99.90
11087;DHT22;5597;47.588;9.642;2022-12-05T12:04:51;5.10;99.90
11087;DHT22;5597;47.588;9.642;2022-12-05T12:13:14;5.10;99.90
11087;DHT22;5597;47.588;9.642;2022-12-05T12:23:53;4.90;99.90
11087;DHT22;5597;47.588;9.642;2022-12-05T12:26:43;5.00;99.90
11087;DHT22;5597;47.588;9.642;2022-12-05T12:29:19;5.00;99.90
11087;DHT22;5597;47.588;9.642;2022-12-05T12:37:42;4.90;99.90
11087;DHT22;5597;47.588;9.642;2022-12-05T12:40:15;4.90;99.90
11087;DHT22;5597;47.588;9.642;2022-12-05T12:50:41;4.80;99.90
11087;DHT22;5597;47.588;9.642;2022-12-05T13:03:56;4.90;99.90
11087;DHT22;5597;47.588;9.642;2022-12-05T13:06:52;4.90;99.90
11087;DHT22;5597;47.588;9.642;2022-12-05T13:11:59;4.90;99.90
11087;DHT22;5597;47.588;9.642;2022-12-05T13:14:28;5.00;99.90
11087;DHT22;5597;47.588;9.642;2022-12-05T13:16:55;5.00;99.90
11087;DHT22;5597;47.588;9.642;2022-12-05T13:22:03;5.00;99.90
11087;DHT22;5597;47.588;9.642;2022-12-05T13:24:30;5.00;99.90
11087;DHT22;5597;47.588;9.642;2022-12-05T13:26:58;5.00;99.90
11087;DHT22;5597;47.588;9.642;2022-12-05T13:29:36;5.00;99.90
11087;DHT22;5597;47.588;9.642;2022-12-05T13:32:04;5.00;99.90
11087;DHT22;5597;47.588;9.642;2022-12-05T13:37:09;5.10;99.90
11087;DHT22;5597;47.588;9.642;2022-12-05T13:39:56;5.10;99.90
11087;DHT22;5597;47.588;9.642;2022-12-05T13:42:41;5.10;99.90
11087;DHT22;5597;47.588;9.642;2022-12-05T13:45:10;5.10;99.90
11087;DHT22;5597;47.588;9.642;2022-12-05T13:53:00;5.10;99.90
11087;DHT22;5597;47.588;9.642;2022-12-05T13:55:36;5.10;99.90
11087;DHT22;5597;47.588;9.642;2022-12-05T13:58:32;5.10;99.90
11087;DHT22;5597;47.588;9.642;2022-12-05T14:00:49;5.10;99.90
11087;DHT22;5597;47.588;9.642;2022-12-05T14:05:59;5.20;99.90
11087;DHT22;5597;47.588;9.642;2022-12-05T14:15:52;5.20;99.90
11087;DHT22;5597;47.588;9.642;2022-12-05T14:18:52;5.20;99.90
11087;DHT22;5597;47.588;9.642;2022-12-05T14:24:06;5.10;99.90
11087;DHT22;5597;47.588;9.642;2022-12-05T14:29:23;5.00;99.90
11087;DHT22;5597;47.588;9.642;2022-12-05T14:32:01;5.00;99.90
11087;DHT22;5597;47.588;9.642;2022-12-05T14:34:30;5.00;99.90
11087;DHT22;5597;47.588;9.642;2022-12-05T14:36:58;4.90;99.90
11087;DHT22;5597;47.588;9.642;2022-12-05T14:39:51;4.90;99.90
11087;DHT22;5597;47.588;9.642;2022-12-05T14:44:48;4.90;99.90
11087;DHT22;5597;47.588;9.642;2022-12-05T14:47:24;4.80;99.90
11087;DHT22;5597;47.588;9.642;2022-12-05T14:50:00;4.80;99.90
11087;DHT22;5597;47.588;9.642;2022-12-05T14:52:44;4.70;99.90
11087;DHT22;5597;47.588;9.642;2022-12-05T14:55:30;4.80;99.90
11087;DHT22;5597;47.588;9.642;2022-12-05T14:57:55;4.70;99.90
11087;DHT22;5597;47.588;9.642;2022-12-05T15:00:22;4.70;99.90
11087;DHT22;5597;47.588;9.642;2022-12-05T15:02:50;4.70;99.90
11087;DHT22;5597;47.588;9.642;2022-12-05T15:05:29;4.70;99.90
11087;DHT22;5597;47.588;9.642;2022-12-05T15:07:57;4.70;99.90
11087;DHT22;5597;47.588;9.642;2022-12-05T15:10:28;4.70;99.90
11087;DHT22;5597;47.588;9.642;2022-12-05T15:13:06;4.70;99.90
11087;DHT22;5597;47.588;9.642;2022-12-05T15:15:46;4.70;99.90
11087;DHT22;5597;47.588;9.642;2022-12-05T15:20:59;4.60;99.90
11087;DHT22;5597;47.588;9.642;2022-12-05T15:23:46;4.60;99.90
11087;DHT22;5597;47.588;9.642;2022-12-05T15:26:25;4.50;99.90
11087;DHT22;5597;47.588;9.642;2022-12-05T15:29:11;4.50;99.90
11087;DHT22;5597;47.588;9.642;2022-12-05T15:36:45;4.40;99.90
11087;DHT22;5597;47.588;9.642;2022-12-05T15:39:23;4.30;99.90
11087;DHT22;5597;47.588;9.642;2022-12-05T15:41:51;4.30;99.90
11087;DHT22;5597;47.588;9.642;2022-12-05T15:44:18;4.30;99.90
11087;DHT22;5597;47.588;9.642;2022-12-05T15:46:50;4.30;99.90
11087;DHT22;5597;47.588;9.642;2022-12-05T15:49:26;4.20;99.90
11087;DHT22;5597;47.588;9.642;2022-12-05T15:51:59;4.20;99.90
11087;DHT22;5597;47.588;9.642;2022-12-05T15:54:32;4.20;99.90
11087;DHT22;5597;47.588;9.642;2022-12-05T15:57:07;4.10;99.90
11087;DHT22;5597;47.588;9.642;2022-12-05T15:59:51;4.10;99.90
11087;DHT22;5597;47.588;9.642;2022-12-05T16:02:26;4.10;99.90
11087;DHT22;5597;47.588;9.642;2022-12-05T16:04:57;4.00;99.90
11087;DHT22;5597;47.588;9.642;2022-12-05T16:07:26;4.00;99.90
11087;DHT22;5597;47.588;9.642;2022-12-05T16:09:58;4.00;99.90
11087;DHT22;5597;47.588;9.642;2022-12-05T16:15:04;4.00;99.90
11087;DHT22;5597;47.588;9.642;2022-12-05T16:17:45;3.90;99.90
11087;DHT22;5597;47.588;9.642;2022-12-05T16:20:27;3.90;99.90
11087;DHT22;5597;47.588;9.642;2022-12-05T16:23:05;3.90;99.90
11087;DHT22;5597;47.588;9.642;2022-12-05T16:25:45;3.80;99.90
11087;DHT22;5597;47.588;9.642;2022-12-05T16:28:16;3.80;99.90
11087;DHT22;5597;47.588;9.642;2022-12-05T16:30:55;3.80;99.90
11087;DHT22;5597;47.588;9.642;2022-12-05T16:33:22;3.80;99.90
11087;DHT22;5597;47.588;9.642;2022-12-05T16:35:48;3.80;99.90
11087;DHT22;5597;47.588;9.642;2022-12-05T16:40:50;3.70;99.90
11087;DHT22;5597;47.588;9.642;2022-12-05T16:48:39;3.60;99.90
11087;DHT22;5597;47.588;9.642;2022-12-05T16:51:18;3.50;99.90
11087;DHT22;5597;47.588;9.642;2022-12-05T16:53:53;3.50;99.90
11087;DHT22;5597;47.588;9.642;2022-12-05T16:56:22;3.40;99.90
11087;DHT22;5597;47.588;9.642;2022-12-05T16:58:48;3.40;99.90
11087;DHT22;5597;47.588;9.642;2022-12-05T17:01:16;3.30;99.90
11087;DHT22;5597;47.588;9.642;2022-12-05T17:03:42;3.30;99.90
11087;DHT22;5597;47.588;9.642;2022-12-05T17:06:08;3.30;99.90
11087;DHT22;5597;47.588;9.642;2022-12-05T17:08:33;3.20;99.90
11087;DHT22;5597;47.588;9.642;2022-12-05T17:10:59;3.20;99.90
11087;DHT22;5597;47.588;9.642;2022-12-05T17:13:26;3.20;99.90
11087;DHT22;5597;47.588;9.642;2022-12-05T17:15:52;3.20;99.90
11087;DHT22;5597;47.588;9.642;2022-12-05T17:18:20;3.20;99.90
11087;DHT22;5597;47.588;9.642;2022-12-05T17:20:49;3.20;99.90
11087;DHT22;5597;47.588;9.642;2022-12-05T17:23:16;3.20;99.90
11087;DHT22;5597;47.588;9.642;2022-12-05T17:25:48;3.20;99.90
11087;DHT22;5597;47.588;9.642;2022-12-05T17:28:14;3.30;99.90
11087;DHT22;5597;47.588;9.642;2022-12-05T17:30:40;3.30;99.90
11087;DHT22;5597;47.588;9.642;2022-12-05T17:33:09;3.30;99.90
11087;DHT22;5597;47.588;9.642;2022-12-05T17:35:35;3.30;99.90
11087;DHT22;5597;47.588;9.642;2022-12-05T17:38:02;3.30;99.90
11087;DHT22;5597;47.588;9.642;2022-12-05T17:40:29;3.20;99.90
11087;DHT22;5597;47.588;9.642;2022-12-05T17:42:54;3.30;99.90
11087;DHT22;5597;47.588;9.642;2022-12-05T17:45:20;3.30;99.90
11087;DHT22;5597;47.588;9.642;2022-12-05T17:47:46;3.20;99.90
11087;DHT22;5597;47.588;9.642;2022-12-05T17:50:17;3.20;99.90
11087;DHT22;5597;47.588;9.642;2022-12-05T17:52:44;3.30;99.90
11087;DHT22;5597;47.588;9.642;2022-12-05T17:55:22;3.30;99.90
11087;DHT22;5597;47.588;9.642;2022-12-05T17:57:48;3.30;99.90
11087;DHT22;5597;47.588;9.642;2022-12-05T18:00:16;3.30;99.90
11087;DHT22;5597;47.588;9.642;2022-12-05T18:02:43;3.30;99.90
11087;DHT22;5597;47.588;9.642;2022-12-05T18:05:10;3.30;99.90
11087;DHT22;5597;47.588;9.642;2022-12-05T18:07:37;3.30;99.90
11087;DHT22;5597;47.588;9.642;2022-12-05T18:10:05;3.30;99.90
11087;DHT22;5597;47.588;9.642;2022-12-05T18:12:32;3.30;99.90
11087;DHT22;5597;47.588;9.642;2022-12-05T18:14:57;3.30;99.90
11087;DHT22;5597;47.588;9.642;2022-12-05T18:17:23;3.30;99.90
11087;DHT22;5597;47.588;9.642;2022-12-05T18:19:49;3.20;99.90
11087;DHT22;5597;47.588;9.642;2022-12-05T18:22:15;3.20;99.90
11087;DHT22;5597;47.588;9.642;2022-12-05T18:24:40;3.20;99.90
11087;DHT22;5597;47.588;9.642;2022-12-05T18:27:06;3.10;99.90
11087;DHT22;5597;47.588;9.642;2022-12-05T18:29:31;3.10;99.90
11087;DHT22;5597;47.588;9.642;2022-12-05T18:31:57;3.00;99.90
11087;DHT22;5597;47.588;9.642;2022-12-05T18:34:23;2.90;99.90
11087;DHT22;5597;47.588;9.642;2022-12-05T18:36:48;2.90;99.90
11087;DHT22;5597;47.588;9.642;2022-12-05T18:39:14;2.80;99.90
11087;DHT22;5597;47.588;9.642;2022-12-05T18:41:40;2.80;99.90
11087;DHT22;5597;47.588;9.642;2022-12-05T18:44:07;2.80;99.90
11087;DHT22;5597;47.588;9.642;2022-12-05T18:46:35;2.70;99.90